createdAt,value
2019-02-26T00:01:16.427Z,7.50
2019-02-26T00:03:45.020Z,7.49
2019-02-26T00:06:16.064Z,7.48
2019-02-26T00:08:49.265Z,7.48
2019-02-26T00:11:17.949Z,7.46
2019-02-26T00:13:48.641Z,7.49
2019-02-26T00:16:20.554Z,7.48
2019-02-26T00:18:50.241Z,7.46
2019-02-26T00:21:22.112Z,7.42
2019-02-26T00:23:53.116Z,7.42
2019-02-26T00:26:22.889Z,7.41
2019-02-26T00:28:52.501Z,7.40
2019-02-26T00:31:24.306Z,7.39
2019-02-26T00:33:53.452Z,7.39
2019-02-26T00:36:23.074Z,7.37
2019-02-26T00:38:52.868Z,7.37
2019-02-26T00:41:22.900Z,7.34
2019-02-26T00:43:55.345Z,7.33
2019-02-26T00:46:28.478Z,7.27
2019-02-26T00:48:59.102Z,7.20
2019-02-26T00:51:30.628Z,7.18
2019-02-26T00:54:02.366Z,7.15
2019-02-26T00:56:36.434Z,7.13
2019-02-26T00:59:06.236Z,7.15
2019-02-26T01:01:36.024Z,7.14
2019-02-26T01:04:05.759Z,7.09
2019-02-26T01:06:35.322Z,7.01
2019-02-26T01:09:10.703Z,7.04
2019-02-26T01:11:42.965Z,7.03
2019-02-26T01:14:13.669Z,7.06
2019-02-26T01:16:46.097Z,7.02
2019-02-26T01:19:17.598Z,7.03
2019-02-26T01:21:46.962Z,6.95
2019-02-26T01:24:17.254Z,6.90
2019-02-26T01:26:46.834Z,6.90
2019-02-26T01:29:20.655Z,6.90
2019-02-26T01:31:50.359Z,6.87
2019-02-26T01:34:20.453Z,6.87
2019-02-26T01:36:49.969Z,6.87
2019-02-26T01:39:21.586Z,6.88
2019-02-26T01:41:53.414Z,6.85
2019-02-26T01:44:22.215Z,6.87
2019-02-26T01:46:53.784Z,6.83
2019-02-26T01:49:26.671Z,6.73
2019-02-26T01:51:55.919Z,6.73
2019-02-26T01:54:25.605Z,6.80
2019-02-26T01:56:55.289Z,6.75
2019-02-26T01:59:25.162Z,6.77
2019-02-26T02:01:56.091Z,6.77
2019-02-26T02:04:25.592Z,6.78
2019-02-26T02:06:57.132Z,6.78
2019-02-26T02:09:26.856Z,6.78
2019-02-26T02:11:59.939Z,6.79
2019-02-26T02:14:29.053Z,6.81
2019-02-26T02:16:58.955Z,6.82
2019-02-26T02:19:30.185Z,6.81
2019-02-26T02:21:59.994Z,6.80
2019-02-26T02:24:29.618Z,6.79
2019-02-26T02:27:00.316Z,6.80
2019-02-26T02:29:30.093Z,6.84
2019-02-26T02:32:04.360Z,6.85
2019-02-26T02:34:33.099Z,6.84
2019-02-26T02:37:02.624Z,6.82
2019-02-26T02:39:34.337Z,6.84
2019-02-26T02:42:05.308Z,6.87
2019-02-26T02:44:34.728Z,6.93
2019-02-26T02:47:08.809Z,6.95
2019-02-26T02:49:39.886Z,6.98
2019-02-26T02:52:11.878Z,6.98
2019-02-26T02:54:44.176Z,7.03
2019-02-26T02:57:12.902Z,7.04
2019-02-26T02:59:42.676Z,7.09
2019-02-26T03:02:15.054Z,7.11
2019-02-26T03:04:46.270Z,7.15
2019-02-26T03:07:17.844Z,7.15
2019-02-26T03:09:49.013Z,7.20
2019-02-26T03:12:18.470Z,7.16
2019-02-26T03:14:48.022Z,7.19
2019-02-26T03:17:20.199Z,7.11
2019-02-26T03:19:48.998Z,7.18
2019-02-26T03:22:21.438Z,7.21
2019-02-26T03:24:51.248Z,7.22
2019-02-26T03:27:21.308Z,7.22
2019-02-26T03:29:52.531Z,7.27
2019-02-26T03:32:22.614Z,7.28
2019-02-26T03:34:52.220Z,7.29
2019-02-26T03:37:23.359Z,7.32
2019-02-26T03:39:55.225Z,7.33
2019-02-26T03:42:24.746Z,7.35
2019-02-26T03:44:56.056Z,7.37
2019-02-26T03:47:25.567Z,7.36
2019-02-26T03:49:55.096Z,7.37
2019-02-26T03:52:24.825Z,7.34
2019-02-26T03:54:54.645Z,7.37
2019-02-26T03:57:24.862Z,7.38
2019-02-26T03:59:54.774Z,7.37
2019-02-26T04:02:26.164Z,7.34
2019-02-26T04:04:57.243Z,7.32
2019-02-26T04:07:28.335Z,7.30
2019-02-26T04:09:58.773Z,7.24
2019-02-26T04:12:28.425Z,7.25
2019-02-26T04:14:59.393Z,7.31
2019-02-26T04:17:30.741Z,7.23
2019-02-26T04:20:05.090Z,7.17
2019-02-26T04:22:42.299Z,7.16
2019-02-26T04:25:24.877Z,7.22
2019-02-26T04:28:32.905Z,7.24
2019-02-26T04:31:17.246Z,7.23
2019-02-26T04:34:01.146Z,7.24
2019-02-26T04:37:10.360Z,7.28
2019-02-26T04:39:48.165Z,7.29
2019-02-26T04:42:50.531Z,7.32
2019-02-26T04:45:50.872Z,7.29
2019-02-26T04:48:23.624Z,7.23
2019-02-26T04:50:53.641Z,7.05
2019-02-26T04:53:25.335Z,7.13
2019-02-26T04:55:54.773Z,7.16
2019-02-26T04:58:24.659Z,7.14
2019-02-26T05:00:55.608Z,7.14
2019-02-26T05:03:26.510Z,7.16
2019-02-26T05:05:57.211Z,7.12
2019-02-26T05:08:29.384Z,7.14
2019-02-26T05:11:00.016Z,7.15
2019-02-26T05:13:32.816Z,7.14
2019-02-26T05:16:02.544Z,7.08
2019-02-26T05:18:34.617Z,7.07
2019-02-26T05:21:08.317Z,7.06
2019-02-26T05:23:37.574Z,7.01
2019-02-26T05:26:11.680Z,6.95
2019-02-26T05:28:40.871Z,6.95
2019-02-26T05:31:15.161Z,6.92
2019-02-26T05:33:46.794Z,6.86
2019-02-26T05:36:18.514Z,6.80
2019-02-26T05:38:49.265Z,6.80
2019-02-26T05:41:19.637Z,6.79
2019-02-26T05:43:52.184Z,6.72
2019-02-26T05:46:24.230Z,6.69
2019-02-26T05:48:54.148Z,6.70
2019-02-26T05:51:24.585Z,6.70
2019-02-26T05:53:54.816Z,6.65
2019-02-26T05:56:24.475Z,6.65
2019-02-26T05:58:53.930Z,6.92
2019-02-26T06:01:25.044Z,6.86
2019-02-26T06:03:54.774Z,6.78
2019-02-26T06:06:24.186Z,6.70
2019-02-26T06:08:55.197Z,6.66
2019-02-26T06:11:30.834Z,6.63
2019-02-26T06:14:01.406Z,6.60
2019-02-26T06:16:31.455Z,6.59
2019-02-26T06:19:02.840Z,6.57
2019-02-26T06:21:32.374Z,6.58
2019-02-26T06:24:02.203Z,6.54
2019-02-26T06:26:33.331Z,6.55
2019-02-26T06:29:03.295Z,6.55
2019-02-26T06:31:32.994Z,6.51
2019-02-26T06:34:05.642Z,6.53
2019-02-26T06:36:35.534Z,6.58
2019-02-26T06:39:06.083Z,6.59
2019-02-26T06:41:39.562Z,6.57
2019-02-26T06:44:08.418Z,6.55
2019-02-26T06:46:38.426Z,6.58
2019-02-26T06:49:07.903Z,6.65
2019-02-26T06:51:37.496Z,6.55
2019-02-26T06:54:07.440Z,6.65
2019-02-26T06:56:41.517Z,6.70
2019-02-26T06:59:12.282Z,6.75
2019-02-26T07:01:42.178Z,6.79
2019-02-26T07:04:12.859Z,6.83
2019-02-26T07:06:42.594Z,6.85
2019-02-26T07:09:15.247Z,6.88
2019-02-26T07:11:43.528Z,6.90
2019-02-26T07:14:12.991Z,6.95
2019-02-26T07:16:42.549Z,6.99
2019-02-26T07:19:14.048Z,7.05
2019-02-26T07:21:45.386Z,7.12
2019-02-26T07:24:18.071Z,7.18
2019-02-26T07:26:49.591Z,7.21
2019-02-26T07:29:19.222Z,7.16
2019-02-26T07:31:49.524Z,7.18
2019-02-26T07:34:20.536Z,7.24
2019-02-26T07:36:53.389Z,7.33
2019-02-26T07:39:23.126Z,7.40
2019-02-26T07:41:54.416Z,7.46
2019-02-26T07:44:25.935Z,7.56
2019-02-26T07:46:55.445Z,7.49
2019-02-26T07:49:25.065Z,7.58
2019-02-26T07:51:56.108Z,7.63
2019-02-26T07:54:26.227Z,7.66
2019-02-26T07:56:57.512Z,7.62
2019-02-26T07:59:27.841Z,7.65
2019-02-26T08:01:57.812Z,7.78
2019-02-26T08:04:28.723Z,7.79
2019-02-26T08:06:59.581Z,7.87
2019-02-26T08:09:30.538Z,7.94
2019-02-26T08:12:01.900Z,8.04
2019-02-26T08:14:31.102Z,8.10
2019-02-26T08:17:01.909Z,8.11
2019-02-26T08:19:36.367Z,8.12
2019-02-26T08:22:04.512Z,8.18
2019-02-26T08:24:34.244Z,8.24
2019-02-26T08:27:06.051Z,8.30
2019-02-26T08:29:36.434Z,8.31
2019-02-26T08:32:06.250Z,8.42
2019-02-26T08:34:39.195Z,8.47
2019-02-26T08:37:08.937Z,8.60
2019-02-26T08:39:40.286Z,8.66
2019-02-26T08:42:12.350Z,8.71
2019-02-26T08:44:46.205Z,8.83
2019-02-26T08:47:16.217Z,8.88
2019-02-26T08:49:47.499Z,8.96
2019-02-26T08:52:21.484Z,8.99
2019-02-26T08:54:49.007Z,9.00
2019-02-26T08:57:18.393Z,9.10
2019-02-26T08:59:49.659Z,9.21
2019-02-26T09:02:19.097Z,9.30
2019-02-26T09:04:50.357Z,9.43
2019-02-26T09:07:21.813Z,9.50
2019-02-26T09:09:54.895Z,9.56
2019-02-26T09:12:24.641Z,9.61
2019-02-26T09:14:57.057Z,9.74
2019-02-26T09:17:29.706Z,9.79
2019-02-26T09:20:08.426Z,9.93
2019-02-26T09:22:30.184Z,9.99
2019-02-26T09:25:02.207Z,10.03
2019-02-26T09:27:32.123Z,10.10
2019-02-26T09:30:05.919Z,10.10
2019-02-26T09:32:38.021Z,10.32
2019-02-26T09:35:07.690Z,10.32
2019-02-26T09:37:37.121Z,10.39
2019-02-26T09:40:07.682Z,10.34
2019-02-26T09:42:38.570Z,10.38
2019-02-26T09:45:10.494Z,10.42
2019-02-26T09:47:40.054Z,10.50
2019-02-26T09:50:12.934Z,10.55
2019-02-26T09:52:47.889Z,10.53
2019-02-26T09:55:18.246Z,10.63
2019-02-26T09:57:47.959Z,10.67
2019-02-26T10:00:22.096Z,10.77
2019-02-26T10:02:51.893Z,10.81
2019-02-26T10:05:20.882Z,10.82
2019-02-26T10:07:52.258Z,10.84
2019-02-26T10:10:25.353Z,10.91
2019-02-26T10:12:57.405Z,10.90
2019-02-26T10:15:26.439Z,10.97
2019-02-26T10:17:59.588Z,11.03
2019-02-26T10:20:31.629Z,11.14
2019-02-26T10:23:04.277Z,11.24
2019-02-26T10:25:34.962Z,11.30
2019-02-26T10:28:08.780Z,11.27
2019-02-26T10:30:38.720Z,11.33
2019-02-26T10:33:08.934Z,11.40
2019-02-26T10:35:39.710Z,11.45
2019-02-26T10:38:11.756Z,11.49
2019-02-26T10:40:53.493Z,11.61
2019-02-26T10:43:15.243Z,11.71
2019-02-26T10:45:47.282Z,11.82
2019-02-26T10:48:21.912Z,11.87
2019-02-26T10:50:51.888Z,11.92
2019-02-26T10:53:22.824Z,11.99
2019-02-26T10:55:54.466Z,12.08
2019-02-26T10:58:26.327Z,12.14
2019-02-26T11:00:58.742Z,12.23
2019-02-26T11:03:29.621Z,12.28
2019-02-26T11:06:00.707Z,12.35
2019-02-26T11:08:32.895Z,12.40
2019-02-26T11:11:07.410Z,12.35
2019-02-26T11:13:40.130Z,12.38
2019-02-26T11:16:09.977Z,12.40
2019-02-26T11:18:40.704Z,12.49
2019-02-26T11:21:10.668Z,12.55
2019-02-26T11:23:43.868Z,12.58
2019-02-26T11:26:15.325Z,12.58
2019-02-26T11:28:45.904Z,12.67
2019-02-26T11:31:19.742Z,12.72
2019-02-26T11:33:48.832Z,12.81
2019-02-26T11:36:18.373Z,12.87
2019-02-26T11:38:48.003Z,12.88
2019-02-26T11:41:18.363Z,12.98
2019-02-26T11:43:47.808Z,13.04
2019-02-26T11:46:17.792Z,13.09
2019-02-26T11:48:50.629Z,13.16
2019-02-26T11:51:21.035Z,13.22
2019-02-26T11:53:50.464Z,13.27
2019-02-26T11:56:22.967Z,13.34
2019-02-26T11:58:51.511Z,13.35
2019-02-26T12:01:21.489Z,13.38
2019-02-26T12:03:55.886Z,13.43
2019-02-26T12:06:23.594Z,13.52
2019-02-26T12:08:53.065Z,13.47
2019-02-26T12:11:23.295Z,13.53
2019-02-26T12:13:53.206Z,13.60
2019-02-26T12:16:28.423Z,13.65
2019-02-26T12:18:58.885Z,13.65
2019-02-26T12:21:29.833Z,13.70
2019-02-26T12:24:03.213Z,13.71
2019-02-26T12:26:33.106Z,13.72
2019-02-26T12:29:05.538Z,13.75
2019-02-26T12:31:38.968Z,13.74
2019-02-26T12:34:09.148Z,13.76
2019-02-26T12:36:39.954Z,13.79
2019-02-26T12:39:09.836Z,13.83
2019-02-26T12:41:41.746Z,13.89
2019-02-26T12:44:13.538Z,13.93
2019-02-26T12:46:47.239Z,13.96
2019-02-26T12:49:18.047Z,14.00
2019-02-26T12:51:50.461Z,14.03
2019-02-26T12:54:20.945Z,14.09
2019-02-26T12:56:52.303Z,14.10
2019-02-26T12:59:21.844Z,14.17
2019-02-26T13:01:52.008Z,14.23
2019-02-26T13:04:24.921Z,14.24
2019-02-26T13:06:53.062Z,14.25
2019-02-26T13:09:26.792Z,14.32
2019-02-26T13:12:02.320Z,14.39
2019-02-26T13:14:27.679Z,14.39
2019-02-26T13:17:00.188Z,14.43
2019-02-26T13:19:33.275Z,14.47
2019-02-26T13:22:06.715Z,14.52
2019-02-26T13:24:32.100Z,14.54
2019-02-26T13:27:03.656Z,14.52
2019-02-26T13:29:34.042Z,14.57
2019-02-26T13:32:07.861Z,14.60
2019-02-26T13:34:35.852Z,14.66
2019-02-26T13:37:05.371Z,14.70
2019-02-26T13:39:38.632Z,14.67
2019-02-26T13:42:13.099Z,14.68
2019-02-26T13:44:39.078Z,14.73
2019-02-26T13:47:08.582Z,14.76
2019-02-26T13:49:39.962Z,14.76
2019-02-26T13:52:09.756Z,14.80
2019-02-26T13:54:40.596Z,14.84
2019-02-26T13:57:10.543Z,15.00
2019-02-26T13:59:39.949Z,15.13
2019-02-26T14:02:10.038Z,15.15
2019-02-26T14:04:40.702Z,15.09
2019-02-26T14:07:11.598Z,15.11
2019-02-26T14:09:41.143Z,15.09
2019-02-26T14:12:10.678Z,15.05
2019-02-26T14:14:40.294Z,15.06
2019-02-26T14:17:09.801Z,15.10
2019-02-26T14:19:39.394Z,15.10
2019-02-26T14:22:08.855Z,15.16
2019-02-26T14:24:40.255Z,15.15
2019-02-26T14:27:11.401Z,15.21
2019-02-26T14:29:41.922Z,15.28
2019-02-26T14:32:12.414Z,15.18
2019-02-26T14:34:43.313Z,15.16
2019-02-26T14:37:14.139Z,15.13
2019-02-26T14:39:43.546Z,15.09
2019-02-26T14:42:14.086Z,15.06
2019-02-26T14:44:43.488Z,15.09
2019-02-26T14:47:14.010Z,15.01
2019-02-26T14:49:47.833Z,14.98
2019-02-26T14:52:18.203Z,14.99
2019-02-26T14:54:48.074Z,14.97
2019-02-26T14:57:19.928Z,14.94
2019-02-26T14:59:49.342Z,14.93
2019-02-26T15:02:18.979Z,14.91
2019-02-26T15:04:49.686Z,14.87
2019-02-26T15:07:20.941Z,14.85
2019-02-26T15:09:51.807Z,14.83
2019-02-26T15:12:21.488Z,14.75
2019-02-26T15:14:50.898Z,14.73
2019-02-26T15:17:20.303Z,14.64
2019-02-26T15:19:53.133Z,14.64
2019-02-26T15:22:21.236Z,14.60
2019-02-26T15:24:50.616Z,14.52
2019-02-26T15:27:21.210Z,14.49
2019-02-26T15:29:51.113Z,14.48
2019-02-26T15:32:20.519Z,14.41
2019-02-26T15:34:52.081Z,14.39
2019-02-26T15:37:21.467Z,14.36
2019-02-26T15:39:51.365Z,14.29
2019-02-26T15:42:21.107Z,14.28
2019-02-26T15:44:52.459Z,14.21
2019-02-26T15:47:21.955Z,14.19
2019-02-26T15:49:56.601Z,14.12
2019-02-26T15:52:26.099Z,14.09
2019-02-26T15:54:57.290Z,14.03
2019-02-26T15:57:28.625Z,13.96
2019-02-26T15:59:59.554Z,13.91
2019-02-26T16:02:29.263Z,13.83
2019-02-26T16:04:58.869Z,13.71
2019-02-26T16:07:28.283Z,13.66
2019-02-26T16:09:57.829Z,13.65
2019-02-26T16:12:27.415Z,13.61
2019-02-26T16:14:56.903Z,13.55
2019-02-26T16:17:26.584Z,13.49
2019-02-26T16:19:56.111Z,13.47
2019-02-26T16:22:25.520Z,13.43
2019-02-26T16:24:54.933Z,13.41
2019-02-26T16:27:24.828Z,13.36
2019-02-26T16:29:54.259Z,13.30
2019-02-26T16:32:23.651Z,13.27
2019-02-26T16:34:53.084Z,13.21
2019-02-26T16:37:22.461Z,13.17
2019-02-26T16:39:51.853Z,13.15
2019-02-26T16:42:21.413Z,13.11
2019-02-26T16:44:50.805Z,13.04
2019-02-26T16:47:21.173Z,12.99
2019-02-26T16:49:52.276Z,12.95
2019-02-26T16:52:21.902Z,12.91
2019-02-26T16:54:51.309Z,12.86
2019-02-26T16:57:25.734Z,12.82
2019-02-26T16:59:54.778Z,12.76
2019-02-26T17:02:27.196Z,12.69
2019-02-26T17:04:55.500Z,12.64
2019-02-26T17:07:26.309Z,12.60
2019-02-26T17:09:56.303Z,12.55
2019-02-26T17:12:26.943Z,12.48
2019-02-26T17:14:57.655Z,12.43
2019-02-26T17:17:27.055Z,12.38
2019-02-26T17:19:56.734Z,12.34
2019-02-26T17:22:28.557Z,12.27
2019-02-26T17:25:01.251Z,12.19
2019-02-26T17:27:30.688Z,12.13
2019-02-26T17:30:00.072Z,12.07
2019-02-26T17:32:31.338Z,12.02
2019-02-26T17:35:02.721Z,11.96
2019-02-26T17:37:32.112Z,11.93
2019-02-26T17:40:03.306Z,11.91
2019-02-26T17:42:34.523Z,11.88
2019-02-26T17:45:04.146Z,11.82
2019-02-26T17:47:33.810Z,11.78
2019-02-26T17:50:03.407Z,11.75
2019-02-26T17:52:33.918Z,11.73
2019-02-26T17:55:04.371Z,11.68
2019-02-26T17:57:34.670Z,11.64
2019-02-26T18:00:07.115Z,11.61
2019-02-26T18:02:36.544Z,11.56
2019-02-26T18:05:06.698Z,11.50
2019-02-26T18:07:38.398Z,11.48
2019-02-26T18:10:12.515Z,11.44
2019-02-26T18:12:42.678Z,11.40
2019-02-26T18:15:16.593Z,11.36
2019-02-26T18:17:45.135Z,11.30
2019-02-26T18:20:16.620Z,11.23
2019-02-26T18:22:46.012Z,11.17
2019-02-26T18:25:16.353Z,11.11
2019-02-26T18:27:48.778Z,11.07
2019-02-26T18:30:20.198Z,10.99
2019-02-26T18:32:50.452Z,10.96
2019-02-26T18:35:22.956Z,10.76
2019-02-26T18:37:52.331Z,10.76
2019-02-26T18:40:21.713Z,10.71
2019-02-26T18:42:51.363Z,10.66
2019-02-26T18:45:27.397Z,10.59
2019-02-26T18:47:55.144Z,10.55
2019-02-26T18:50:25.813Z,10.49
2019-02-26T18:52:58.034Z,10.45
2019-02-26T18:55:32.306Z,10.43
2019-02-26T18:57:59.683Z,10.42
2019-02-26T19:00:30.138Z,10.41
2019-02-26T19:03:00.889Z,10.39
2019-02-26T19:05:32.076Z,10.36
2019-02-26T19:08:05.890Z,10.36
2019-02-26T19:10:35.841Z,10.33
2019-02-26T19:13:05.532Z,10.29
2019-02-26T19:15:36.139Z,10.24
2019-02-26T19:18:06.742Z,10.21
2019-02-26T19:20:36.699Z,10.16
2019-02-26T19:23:07.213Z,10.14
2019-02-26T19:25:36.637Z,10.05
2019-02-26T19:28:06.249Z,9.95
2019-02-26T19:30:37.010Z,9.91
2019-02-26T19:33:08.720Z,9.90
2019-02-26T19:35:40.342Z,9.78
2019-02-26T19:38:09.554Z,9.78
2019-02-26T19:40:41.574Z,9.75
2019-02-26T19:43:12.094Z,9.68
2019-02-26T19:45:43.687Z,9.61
2019-02-26T19:48:12.635Z,9.56
2019-02-26T19:50:45.604Z,9.55
2019-02-26T19:53:13.468Z,9.47
2019-02-26T19:55:43.877Z,9.43
2019-02-26T19:58:14.406Z,9.40
2019-02-26T20:00:43.836Z,9.36
2019-02-26T20:03:13.217Z,9.31
2019-02-26T20:05:46.634Z,9.28
2019-02-26T20:08:16.904Z,9.26
2019-02-26T20:10:49.150Z,9.21
2019-02-26T20:13:17.466Z,9.17
2019-02-26T20:15:46.863Z,9.15
2019-02-26T20:18:20.793Z,9.13
2019-02-26T20:20:48.275Z,9.10
2019-02-26T20:23:19.122Z,9.07
2019-02-26T20:25:50.092Z,9.04
2019-02-26T20:28:20.522Z,9.02
2019-02-26T20:30:51.705Z,9.00
2019-02-26T20:33:21.110Z,9.00
2019-02-26T20:35:50.676Z,8.97
2019-02-26T20:38:21.228Z,8.95
2019-02-26T20:40:51.626Z,8.91
2019-02-26T20:43:21.076Z,8.85
2019-02-26T20:45:51.095Z,8.84
2019-02-26T20:48:21.242Z,8.82
2019-02-26T20:50:53.764Z,8.82
2019-02-26T20:53:27.039Z,8.80
2019-02-26T20:55:57.725Z,8.69
2019-02-26T20:58:27.771Z,8.68
2019-02-26T21:00:58.786Z,8.66
2019-02-26T21:03:28.865Z,8.65
2019-02-26T21:05:58.454Z,8.61
2019-02-26T21:08:30.746Z,8.56
2019-02-26T21:10:58.974Z,8.51
2019-02-26T21:13:28.539Z,8.50
2019-02-26T21:15:57.925Z,8.47
2019-02-26T21:18:30.352Z,8.45
2019-02-26T21:20:58.512Z,8.41
2019-02-26T21:23:28.382Z,8.42
2019-02-26T21:25:57.889Z,8.37
2019-02-26T21:28:28.851Z,8.31
2019-02-26T21:30:58.225Z,8.32
2019-02-26T21:33:30.559Z,8.32
2019-02-26T21:35:58.987Z,8.30
2019-02-26T21:38:28.363Z,8.27
2019-02-26T21:40:57.785Z,8.24
2019-02-26T21:43:28.938Z,8.20
2019-02-26T21:45:59.796Z,8.18
2019-02-26T21:48:29.182Z,8.17
2019-02-26T21:51:01.081Z,8.11
2019-02-26T21:53:30.473Z,8.09
2019-02-26T21:56:00.848Z,8.08
2019-02-26T21:58:30.609Z,8.06
2019-02-26T22:01:00.034Z,8.07
2019-02-26T22:03:29.420Z,8.09
2019-02-26T22:06:04.975Z,8.05
2019-02-26T22:08:31.828Z,8.02
2019-02-26T22:11:01.220Z,8.04
2019-02-26T22:13:30.832Z,8.05
2019-02-26T22:16:00.333Z,8.01
2019-02-26T22:18:34.056Z,7.98
2019-02-26T22:21:02.338Z,7.94
2019-02-26T22:23:34.057Z,7.95
2019-02-26T22:26:02.805Z,7.94
2019-02-26T22:28:32.310Z,7.89
2019-02-26T22:31:02.133Z,7.87
2019-02-26T22:33:32.540Z,7.85
2019-02-26T22:36:03.668Z,7.81
2019-02-26T22:38:33.066Z,7.77
2019-02-26T22:41:02.955Z,7.73
2019-02-26T22:43:32.593Z,7.70
2019-02-26T22:46:01.980Z,7.69
2019-02-26T22:48:32.333Z,7.67
2019-02-26T22:51:04.603Z,7.70
2019-02-26T22:53:36.572Z,7.66
2019-02-26T22:56:07.327Z,7.65
2019-02-26T22:58:36.919Z,7.64
2019-02-26T23:01:30.269Z,7.60
2019-02-26T23:03:53.816Z,7.55
2019-02-26T23:06:23.313Z,7.56
2019-02-26T23:08:52.738Z,7.49
2019-02-26T23:11:23.928Z,7.42
2019-02-26T23:13:53.686Z,7.34
2019-02-26T23:16:23.247Z,7.34
2019-02-26T23:18:53.252Z,7.30
2019-02-26T23:21:22.967Z,7.29
2019-02-26T23:23:54.697Z,7.29
2019-02-26T23:26:23.956Z,7.21
2019-02-26T23:28:54.931Z,7.18
2019-02-26T23:31:25.038Z,7.11
2019-02-26T23:33:54.633Z,7.11
2019-02-26T23:36:25.742Z,7.11
2019-02-26T23:38:56.622Z,7.02
2019-02-26T23:41:26.212Z,7.02
2019-02-26T23:43:55.642Z,7.02
2019-02-26T23:46:25.026Z,7.01
2019-02-26T23:48:54.482Z,7.00
2019-02-26T23:51:25.333Z,6.97
2019-02-26T23:53:54.721Z,6.93
2019-02-26T23:56:24.277Z,6.92
2019-02-26T23:58:54.812Z,6.85
